KADS

Addison Airport

Dallas, Texas, USA
METAR KADS 191657Z 23008KT 10SM SKC 31/20 A2990
Observed Flight Rules
Aug-19 @ 16:57 UTC (16 minutes ago) Visual Flight Rules
Wind Visibility Clouds
230° at 8 knots 10 miles
  • Clear skies
Temperatures Readings
Current 31°C / 88°F
Dewpoint 20°C / 68°F
Humidity 52%
Altimeter 29.9" Hg
Pressure 1013 hPa
Elevation 196
METAR KADS 191657Z 23008KT 10SM SKC 31/20 A2990
Observed Flight Rules
Aug-19 @ 16:57 UTC
(16 minutes ago)
VFR
Wind Visibility
230° at 8 knots 10 miles
Clouds
  • Clear skies
Temperature Dewpoint
31°C / 88°F 20°C / 68°F
Humidity Altimeter Pressure
52% 29.9" Hg 1013 hPa